Hauptseite
METAR-TAF:

METAR-TAF

Flughäfen :

Saint-Etienne, Frankreich

Flughafen Saint-Étienne

Breite: 45-32N, Länge: 004-18E, Höhe: 404 m

Beobachtung

Neuester Wetterbericht von vor 25 Minuten, um 09:30 UTC
Wind 8 kt aus Süd/Südost, variierte zwischen Südost und Süd
Temperatur 23°C
Luftfeuchtigkeit 41%
Luftdruck 1027 hPa
Sichtweite 10 km oder mehr
keine Wolken unter 1500 m und keine Kumulonimbus oder Gewitterwolken

METAR: LFMH 190930Z AUTO 16008KT 130V190 CAVOK 23/09 Q1027 NOSIG

Zeit: 11:55 (09:55 UTC)

Prognose

Neuester Wetterbericht von vor 1 Stunde und 55 Minuten, um 08:00 UTC
Gültige Prognose vom 19 um 09 UTC bis 20 um 09 UTC
Wind 6 kt aus Süd/Südost
Sichtweite 10 km oder mehr
keine Wolken unter 1500 m und keine Kumulonimbus oder Gewitterwolken

TAF: LFMH 190800Z 1909/2009 16006KT CAVOK

Wetterbeobachtungen und Prognosen von mehr als 4000 Flughäfen (METAR und TAF Bericht).

Die verfügbaren Stationen werden durch gelbe und rote Markierungen auf der Karte dargestellt.

Führen Sie die Maus auf sie, um den Namen der Station zu sehen.

Darauf klicken, um die Beobachtung von Wetterbeobachtungen und Prognosen zu sehen.

Um die Karte zu ändern : klicken Sie auf den grünen Tasten mit einem schwarzen Kreuz Zum Vergrößern, auf den grünen Button mit einem Gedankenstrich zu verkleinern, oder auf die grünen Pfeile für benachbarte Karten.


METAR-TAF: